Time;durP1;ratioP1;P1;durP2;ratioP2;P2;SDS_P1;SDS_P2;PMS_P1;PMS_P2;Temp;Humidity;BMP_temperature;BMP_pressure;BME280_temperature;BME280_humidity;BME280_pressure;Samples;Min_cycle;Max_cycle;Signal;HPM_P1;HPM_P2
2021/11/25 00:00:36;;;;;;;18.23;16.33;;;2.60;99.90;;;;;;5028612;28;20162;-75
2021/11/25 00:03:01;;;;;;;18.65;16.70;;;2.50;99.90;;;;;;5027469;28;20492;-75
2021/11/25 00:05:27;;;;;;;18.92;17.05;;;2.60;99.90;;;;;;5028329;28;20021;-75
2021/11/25 00:07:53;;;;;;;19.63;17.15;;;2.60;99.90;;;;;;5023222;28;20033;-75
2021/11/25 00:10:20;;;;;;;18.92;16.98;;;2.60;99.90;;;;;;5032009;28;20022;-75
2021/11/25 00:12:46;;;;;;;20.25;17.55;;;2.70;99.90;;;;;;5040013;28;20028;-75
2021/11/25 00:15:12;;;;;;;19.73;17.58;;;2.70;99.90;;;;;;5021012;28;20018;-75
2021/11/25 00:17:39;;;;;;;20.42;18.15;;;2.70;99.90;;;;;;5040463;28;20119;-75
2021/11/25 00:20:07;;;;;;;19.75;17.65;;;2.70;99.90;;;;;;5027204;28;20032;-76
2021/11/25 00:22:34;;;;;;;20.05;18.00;;;2.70;99.90;;;;;;5029693;28;20075;-75
2021/11/25 00:25:00;;;;;;;19.58;17.58;;;2.60;99.90;;;;;;5040845;28;20027;-75
2021/11/25 00:27:26;;;;;;;24.05;19.90;;;2.60;99.90;;;;;;5009793;28;20029;-75
2021/11/25 00:29:52;;;;;;;20.98;18.65;;;2.60;99.90;;;;;;5043674;28;20083;-75
2021/11/25 00:32:17;;;;;;;20.35;18.15;;;2.60;99.90;;;;;;5040040;28;20013;-75
2021/11/25 00:34:43;;;;;;;18.92;16.92;;;2.70;99.90;;;;;;5024894;28;20053;-75
2021/11/25 00:37:08;;;;;;;20.02;17.83;;;2.70;99.90;;;;;;5019261;28;20028;-75
2021/11/25 00:39:34;;;;;;;20.88;18.35;;;2.70;99.90;;;;;;5031992;28;20021;-75
2021/11/25 00:42:00;;;;;;;20.00;17.90;;;2.70;99.90;;;;;;5011565;28;20029;-75
2021/11/25 00:44:25;;;;;;;20.55;18.40;;;2.70;99.90;;;;;;5020011;28;20104;-75
2021/11/25 00:46:51;;;;;;;21.58;18.48;;;2.60;99.90;;;;;;5033453;28;20018;-75
2021/11/25 00:49:17;;;;;;;19.80;17.73;;;2.60;99.90;;;;;;5029762;28;20025;-75
2021/11/25 00:51:42;;;;;;;19.63;17.63;;;2.60;99.90;;;;;;5008842;28;20056;-76
2021/11/25 00:54:08;;;;;;;20.02;17.92;;;2.60;99.90;;;;;;5036493;28;20021;-76
2021/11/25 00:56:34;;;;;;;20.02;17.88;;;2.60;99.90;;;;;;5048982;28;20092;-76
2021/11/25 00:58:59;;;;;;;20.30;18.10;;;2.60;99.90;;;;;;5038883;28;20475;-75
2021/11/25 01:01:25;;;;;;;22.40;19.92;;;2.50;99.90;;;;;;5037045;28;20412;-75
2021/11/25 01:03:50;;;;;;;20.30;18.05;;;2.50;99.90;;;;;;5019263;28;20120;-75
2021/11/25 01:06:16;;;;;;;20.63;18.42;;;2.50;99.90;;;;;;5044302;28;20024;-75
2021/11/25 01:08:41;;;;;;;21.50;19.20;;;2.40;99.90;;;;;;5030196;28;20029;-76
2021/11/25 01:11:08;;;;;;;20.52;18.15;;;2.40;99.90;;;;;;5035414;28;20018;-75
2021/11/25 01:13:34;;;;;;;22.45;19.20;;;2.50;99.90;;;;;;5023605;28;20532;-74
2021/11/25 01:16:00;;;;;;;20.13;18.00;;;2.40;99.90;;;;;;5035637;28;20022;-74
2021/11/25 01:18:26;;;;;;;25.33;20.40;;;2.50;99.90;;;;;;5021306;28;20045;-75
2021/11/25 01:20:52;;;;;;;22.27;19.15;;;2.50;99.90;;;;;;5017372;28;20025;-75
2021/11/25 01:23:27;;;;;;;22.90;20.40;;;2.50;99.90;;;;;;5022471;28;20025;-74
2021/11/25 01:25:54;;;;;;;21.63;19.42;;;2.50;99.90;;;;;;5033554;28;20025;-74
2021/11/25 01:28:22;;;;;;;23.38;19.75;;;2.50;99.90;;;;;;5030377;28;20514;-76
2021/11/25 01:30:50;;;;;;;24.10;20.45;;;2.50;99.90;;;;;;5016470;28;20032;-75
2021/11/25 01:33:16;;;;;;;21.05;18.88;;;2.50;99.90;;;;;;5030842;28;20033;-76
2021/11/25 01:35:43;;;;;;;20.63;18.38;;;2.50;99.90;;;;;;5019795;28;20087;-75
2021/11/25 01:38:09;;;;;;;21.42;19.13;;;2.40;99.90;;;;;;5036057;28;20152;-75
2021/11/25 01:40:36;;;;;;;21.17;18.80;;;2.50;99.90;;;;;;5042984;28;20052;-75
2021/11/25 01:43:01;;;;;;;21.95;19.65;;;2.50;99.90;;;;;;5026617;28;20483;-76
2021/11/25 01:45:28;;;;;;;22.50;19.25;;;2.50;99.90;;;;;;5031932;28;20071;-76
2021/11/25 01:47:55;;;;;;;22.33;19.20;;;2.50;99.90;;;;;;5035910;28;20383;-75
2021/11/25 01:50:23;;;;;;;23.38;20.35;;;2.50;99.90;;;;;;5032740;28;20017;-75
2021/11/25 01:52:49;;;;;;;23.60;20.52;;;2.50;99.90;;;;;;5022978;28;20025;-75
2021/11/25 01:55:17;;;;;;;21.20;18.90;;;2.40;99.90;;;;;;5031914;28;20422;-75
2021/11/25 01:57:42;;;;;;;24.27;21.67;;;2.50;99.90;;;;;;5037363;28;20045;-75
2021/11/25 02:00:22;;;;;;;25.50;21.50;;;2.40;99.90;;;;;;5014060;28;20391;-75
2021/11/25 02:02:48;;;;;;;24.40;20.98;;;2.50;99.90;;;;;;5034414;28;20076;-76
2021/11/25 02:05:14;;;;;;;22.63;20.08;;;2.50;99.90;;;;;;5020191;28;20017;-75
2021/11/25 02:07:40;;;;;;;23.30;20.70;;;2.40;99.90;;;;;;5036386;28;20493;-75
2021/11/25 02:10:07;;;;;;;22.98;20.50;;;2.40;99.90;;;;;;5031287;28;20022;-75
2021/11/25 02:12:33;;;;;;;22.80;20.35;;;2.40;99.90;;;;;;5036316;28;20089;-76
2021/11/25 02:14:58;;;;;;;25.23;20.75;;;2.40;99.90;;;;;;5046148;28;20096;-76
2021/11/25 02:17:24;;;;;;;23.58;20.95;;;2.40;99.90;;;;;;5025320;28;20029;-75
2021/11/25 02:19:50;;;;;;;24.60;20.63;;;2.40;99.90;;;;;;5037684;28;20510;-75
2021/11/25 02:22:18;;;;;;;24.17;21.05;;;2.40;99.90;;;;;;5014857;28;20029;-75
2021/11/25 02:24:43;;;;;;;24.92;22.17;;;2.40;99.90;;;;;;5030287;28;20033;-75
2021/11/25 02:27:09;;;;;;;24.23;21.58;;;2.40;99.90;;;;;;5017982;28;20083;-75
2021/11/25 02:29:35;;;;;;;23.85;21.13;;;2.40;99.90;;;;;;5039309;28;20499;-75
2021/11/25 02:32:01;;;;;;;25.08;22.05;;;2.50;99.90;;;;;;5022990;28;20021;-76
2021/11/25 02:34:26;;;;;;;23.90;21.40;;;2.40;99.90;;;;;;5021167;28;20390;-76
2021/11/25 02:36:52;;;;;;;24.77;22.10;;;2.50;99.90;;;;;;5043629;28;20041;-75
2021/11/25 02:39:19;;;;;;;26.00;22.63;;;2.50;99.90;;;;;;5024619;28;20458;-76
2021/11/25 02:41:46;;;;;;;26.75;23.00;;;2.40;99.90;;;;;;5041401;28;20459;-76
2021/11/25 02:44:11;;;;;;;25.45;22.42;;;2.40;99.90;;;;;;5031209;28;20037;-75
2021/11/25 02:46:37;;;;;;;24.95;21.98;;;2.40;99.90;;;;;;5019008;28;20088;-76
2021/11/25 02:49:03;;;;;;;25.92;22.60;;;2.30;99.90;;;;;;5041671;28;20025;-76
2021/11/25 02:51:35;;;;;;;26.05;22.30;;;2.30;99.90;;;;;;5036112;28;20018;-76
2021/11/25 02:54:01;;;;;;;25.60;22.67;;;2.30;99.90;;;;;;5037926;28;20025;-76
2021/11/25 02:56:29;;;;;;;25.42;22.35;;;2.20;99.90;;;;;;5028709;28;20107;-78
2021/11/25 02:58:57;;;;;;;25.58;22.83;;;2.20;99.90;;;;;;5035299;28;20021;-77
2021/11/25 03:01:32;;;;;;;26.50;22.55;;;2.20;99.90;;;;;;5008807;28;20029;-76
2021/11/25 03:04:00;;;;;;;26.85;23.75;;;2.30;99.90;;;;;;5013311;28;20025;-76
2021/11/25 03:06:25;;;;;;;25.27;22.58;;;2.30;99.90;;;;;;5023578;28;20037;-76
2021/11/25 03:08:51;;;;;;;27.73;23.02;;;2.30;99.90;;;;;;5031107;28;20029;-76
2021/11/25 03:11:21;;;;;;;26.52;23.65;;;2.30;99.90;;;;;;5007527;28;20037;-77
2021/11/25 03:13:51;;;;;;;27.02;22.40;;;2.30;99.90;;;;;;5021480;28;20111;-77
2021/11/25 03:16:17;;;;;;;26.42;23.10;;;2.30;99.90;;;;;;5034452;28;20079;-76
2021/11/25 03:18:43;;;;;;;26.23;22.70;;;2.30;99.90;;;;;;5015541;28;20050;-76
2021/11/25 03:21:10;;;;;;;25.90;22.13;;;2.20;99.90;;;;;;5005424;28;20472;-75
2021/11/25 03:23:38;;;;;;;27.33;24.33;;;2.20;99.90;;;;;;5015649;28;20032;-75
2021/11/25 03:26:07;;;;;;;27.15;24.05;;;2.30;99.90;;;;;;5032681;28;20025;-76
2021/11/25 03:28:36;;;;;;;27.65;23.48;;;2.20;99.90;;;;;;5034248;28;20032;-75
2021/11/25 03:31:02;;;;;;;26.63;23.63;;;2.20;99.90;;;;;;5034329;28;20013;-78
2021/11/25 03:33:31;;;;;;;28.55;24.52;;;2.20;99.90;;;;;;5002729;28;20036;-77
2021/11/25 03:35:59;;;;;;;29.63;24.67;;;2.20;99.90;;;;;;5016150;28;20033;-77
2021/11/25 03:38:25;;;;;;;27.60;24.60;;;2.20;99.90;;;;;;5020999;28;20060;-77
2021/11/25 03:40:51;;;;;;;30.50;24.15;;;2.20;99.90;;;;;;5021125;28;20065;-77
2021/11/25 03:43:17;;;;;;;26.35;23.42;;;2.30;99.90;;;;;;5010605;28;20030;-78
2021/11/25 03:45:43;;;;;;;27.13;23.23;;;2.20;99.90;;;;;;5012142;28;20056;-81
2021/11/25 03:48:09;;;;;;;27.85;24.65;;;2.20;99.90;;;;;;5003235;28;20147;-78
2021/11/25 03:50:36;;;;;;;28.85;25.33;;;2.30;99.90;;;;;;5034052;28;20107;-78
2021/11/25 03:53:01;;;;;;;28.85;24.77;;;2.20;99.90;;;;;;5023632;28;20097;-78
2021/11/25 03:55:27;;;;;;;31.65;26.23;;;2.20;99.90;;;;;;5039371;28;20037;-77
2021/11/25 03:57:53;;;;;;;28.80;25.58;;;2.30;99.90;;;;;;5031017;28;20029;-78
2021/11/25 04:00:21;;;;;;;31.67;27.02;;;2.30;99.90;;;;;;5020769;28;20079;-77
2021/11/25 04:02:49;;;;;;;31.50;27.15;;;2.20;99.90;;;;;;5027341;28;20053;-77
2021/11/25 04:05:15;;;;;;;32.00;27.33;;;2.20;99.90;;;;;;5009092;28;20033;-78
2021/11/25 04:07:41;;;;;;;30.25;25.60;;;2.20;99.90;;;;;;5020375;28;20029;-76
2021/11/25 04:10:09;;;;;;;33.15;27.73;;;2.20;99.90;;;;;;5002823;28;20073;-76
2021/11/25 04:12:35;;;;;;;34.05;28.60;;;2.20;99.90;;;;;;5028879;28;20030;-77
2021/11/25 04:15:01;;;;;;;31.60;26.67;;;2.20;99.90;;;;;;5029034;28;20521;-77
2021/11/25 04:17:27;;;;;;;32.58;27.35;;;2.20;99.90;;;;;;5021919;28;20021;-76
2021/11/25 04:19:53;;;;;;;31.38;27.27;;;2.20;99.90;;;;;;5020885;28;20045;-77
2021/11/25 04:22:21;;;;;;;32.70;27.80;;;2.20;99.90;;;;;;5026840;28;20053;-77
2021/11/25 04:24:48;;;;;;;33.22;28.05;;;2.00;99.90;;;;;;5026416;28;20097;-77
2021/11/25 04:27:15;;;;;;;30.52;27.02;;;2.10;99.90;;;;;;5003136;28;20025;-76
2021/11/25 04:29:43;;;;;;;31.08;26.88;;;2.20;99.90;;;;;;5019761;28;20121;-77
2021/11/25 04:35:35;;;;;;;31.05;27.10;;;2.10;99.90;;;;;;5029967;28;20099;-77
2021/11/25 04:37:42;;;;;;;30.15;26.70;;;2.00;99.90;;;;;;5024507;28;20136;-77
2021/11/25 04:40:09;;;;;;;33.10;27.15;;;1.90;99.90;;;;;;5019827;28;20025;-77
2021/11/25 04:42:34;;;;;;;30.35;27.00;;;1.90;99.90;;;;;;5032017;28;20036;-78
2021/11/25 04:45:00;;;;;;;29.70;26.25;;;1.90;99.90;;;;;;5028735;28;20026;-78
2021/11/25 04:47:26;;;;;;;29.98;26.75;;;1.90;99.90;;;;;;5038646;28;20029;-78
2021/11/25 04:49:51;;;;;;;29.10;25.52;;;2.00;99.90;;;;;;5032875;28;20119;-77
2021/11/25 04:52:17;;;;;;;28.30;25.13;;;2.00;99.90;;;;;;5019586;28;20018;-77
2021/11/25 04:54:42;;;;;;;30.73;26.20;;;2.00;99.90;;;;;;5008229;28;20527;-78
2021/11/25 04:57:08;;;;;;;32.05;26.98;;;1.80;99.90;;;;;;5026465;28;20025;-78
2021/11/25 04:59:33;;;;;;;29.42;25.83;;;1.80;99.90;;;;;;5008487;28;20403;-78
2021/11/25 05:01:59;;;;;;;28.58;25.40;;;1.80;99.90;;;;;;5008559;28;20056;-78
2021/11/25 05:04:25;;;;;;;30.70;26.70;;;1.80;99.90;;;;;;5001447;28;20037;-78
2021/11/25 05:06:50;;;;;;;30.15;25.85;;;1.90;99.90;;;;;;5019329;28;20155;-78
2021/11/25 05:09:17;;;;;;;31.17;26.35;;;1.90;99.90;;;;;;5001468;28;20030;-76
2021/11/25 05:11:43;;;;;;;30.25;26.85;;;1.70;99.90;;;;;;5019332;28;20018;-76
2021/11/25 05:14:08;;;;;;;30.85;27.50;;;1.70;99.90;;;;;;5025850;28;20488;-77
2021/11/25 05:16:34;;;;;;;31.58;26.27;;;1.70;99.90;;;;;;5007773;28;20029;-77
2021/11/25 05:18:59;;;;;;;31.08;27.67;;;1.80;99.90;;;;;;5026034;28;20116;-75
2021/11/25 05:21:25;;;;;;;31.98;26.77;;;1.90;99.90;;;;;;5007597;28;20401;-76
2021/11/25 05:23:51;;;;;;;29.08;25.65;;;1.90;99.90;;;;;;5018866;28;20064;-76
2021/11/25 05:26:17;;;;;;;29.80;26.52;;;1.80;99.90;;;;;;5001642;28;20530;-76
2021/11/25 05:28:42;;;;;;;30.92;26.45;;;1.80;99.90;;;;;;5025514;28;20552;-76
2021/11/25 05:31:08;;;;;;;33.28;28.05;;;1.70;99.90;;;;;;5030211;28;20104;-76
2021/11/25 05:33:34;;;;;;;30.95;27.10;;;1.70;99.90;;;;;;5018595;28;20025;-77
2021/11/25 05:35:59;;;;;;;29.25;25.50;;;1.70;99.90;;;;;;5050324;28;20032;-75
2021/11/25 05:38:25;;;;;;;30.02;26.83;;;1.70;99.90;;;;;;5025872;28;20026;-76
2021/11/25 05:40:52;;;;;;;34.15;30.52;;;1.80;99.90;;;;;;4994674;28;20554;-76
2021/11/25 05:43:17;;;;;;;44.20;38.65;;;1.70;99.90;;;;;;5025340;28;20495;-76
2021/11/25 05:45:43;;;;;;;42.03;36.38;;;1.70;99.90;;;;;;5024791;28;20036;-76
2021/11/25 05:48:09;;;;;;;104.15;92.53;;;1.80;99.90;;;;;;5025769;28;20022;-76
2021/11/25 05:50:34;;;;;;;34.97;29.00;;;1.80;99.90;;;;;;5024594;28;20534;-76
2021/11/25 05:53:00;;;;;;;37.17;33.17;;;1.80;99.90;;;;;;5018645;28;20029;-76
2021/11/25 05:55:29;;;;;;;32.33;28.45;;;1.80;99.90;;;;;;5019135;28;20026;-76
2021/11/25 05:57:56;;;;;;;31.85;27.77;;;1.70;99.90;;;;;;5007574;28;20113;-76
2021/11/25 06:00:22;;;;;;;33.72;26.55;;;1.90;99.90;;;;;;5024777;28;20026;-76
2021/11/25 06:02:48;;;;;;;29.30;26.20;;;1.90;99.90;;;;;;5007535;28;20037;-77
2021/11/25 06:05:16;;;;;;;32.45;27.95;;;2.00;99.90;;;;;;5007252;28;20028;-76
2021/11/25 06:07:45;;;;;;;36.47;32.78;;;1.70;99.90;;;;;;5018886;28;20467;-76
2021/11/25 06:10:12;;;;;;;33.00;28.67;;;1.60;99.90;;;;;;5017832;28;20022;-76
2021/11/25 06:12:38;;;;;;;32.45;28.13;;;1.70;99.90;;;;;;5001932;28;20075;-76
2021/11/25 06:15:05;;;;;;;31.05;27.63;;;1.70;99.90;;;;;;5018044;28;20065;-76
2021/11/25 06:17:31;;;;;;;30.23;26.80;;;1.70;99.90;;;;;;5046753;28;20037;-76
2021/11/25 06:19:56;;;;;;;31.42;27.98;;;1.60;99.90;;;;;;5017453;28;20026;-76
2021/11/25 06:22:23;;;;;;;30.95;26.83;;;1.50;99.90;;;;;;5019574;28;20454;-76
2021/11/25 06:24:49;;;;;;;32.80;27.60;;;1.50;99.90;;;;;;5018636;28;20029;-74
2021/11/25 06:27:15;;;;;;;30.92;27.67;;;1.50;99.90;;;;;;5019068;28;20391;-75
2021/11/25 06:29:40;;;;;;;31.30;28.00;;;1.50;99.90;;;;;;5031567;28;20029;-76
2021/11/25 06:32:06;;;;;;;30.38;26.92;;;1.40;99.90;;;;;;5006383;28;20026;-76
2021/11/25 06:34:32;;;;;;;31.48;27.80;;;1.50;99.90;;;;;;5011577;28;20022;-76
2021/11/25 06:36:57;;;;;;;31.73;27.80;;;1.40;99.90;;;;;;5018876;28;20025;-76
2021/11/25 06:39:23;;;;;;;33.78;29.75;;;1.40;99.90;;;;;;5030755;28;20101;-76
2021/11/25 06:41:48;;;;;;;36.30;29.83;;;1.70;99.90;;;;;;5018799;28;20380;-76
2021/11/25 06:44:14;;;;;;;34.08;29.63;;;1.70;99.90;;;;;;5030811;28;20026;-76
2021/11/25 06:46:40;;;;;;;33.33;29.70;;;1.80;99.90;;;;;;5018225;28;20045;-76
2021/11/25 06:49:05;;;;;;;36.13;31.65;;;1.80;99.90;;;;;;5013391;28;20115;-76
2021/11/25 06:51:31;;;;;;;35.78;31.13;;;1.80;99.90;;;;;;5011608;28;20018;-76
2021/11/25 06:53:57;;;;;;;36.90;31.88;;;1.80;99.90;;;;;;5024685;28;20022;-76
2021/11/25 06:56:23;;;;;;;43.85;37.30;;;1.80;99.90;;;;;;5031072;28;20032;-75
2021/11/25 06:58:50;;;;;;;43.33;37.00;;;1.70;99.90;;;;;;5013431;28;20038;-76
2021/11/25 07:01:16;;;;;;;51.85;44.00;;;1.70;99.90;;;;;;5017958;28;20045;-75
2021/11/25 07:03:42;;;;;;;38.25;33.33;;;1.70;99.90;;;;;;5013488;28;20067;-75
2021/11/25 07:06:07;;;;;;;35.53;30.30;;;1.70;99.90;;;;;;5031000;28;20395;-76
2021/11/25 07:08:33;;;;;;;36.92;31.52;;;1.70;99.90;;;;;;5002453;28;20137;-76
2021/11/25 07:10:58;;;;;;;35.13;31.25;;;1.70;99.90;;;;;;5016784;28;20028;-76
2021/11/25 07:13:25;;;;;;;36.50;31.38;;;1.80;99.90;;;;;;5016968;28;20022;-75
2021/11/25 07:15:51;;;;;;;36.78;32.72;;;1.80;99.90;;;;;;5016899;28;20475;-76
2021/11/25 07:18:16;;;;;;;36.88;33.00;;;1.60;99.90;;;;;;5016877;28;20036;-76
2021/11/25 07:20:42;;;;;;;35.97;31.55;;;1.60;99.90;;;;;;5028112;28;20503;-75
2021/11/25 07:23:08;;;;;;;38.38;33.40;;;1.60;99.90;;;;;;4997166;28;20369;-75
2021/11/25 07:25:33;;;;;;;36.83;32.88;;;1.50;99.90;;;;;;4996915;28;20026;-76
2021/11/25 07:27:59;;;;;;;35.72;31.77;;;1.40;99.90;;;;;;5014690;28;20078;-76
2021/11/25 07:30:25;;;;;;;39.63;33.25;;;1.50;99.90;;;;;;4997151;28;20021;-76
2021/11/25 07:32:51;;;;;;;36.05;32.13;;;1.60;99.90;;;;;;5014593;28;20131;-75
2021/11/25 07:35:19;;;;;;;36.78;32.75;;;1.50;99.90;;;;;;5014370;28;20454;-75
2021/11/25 07:37:47;;;;;;;35.65;31.63;;;1.50;99.90;;;;;;5027950;28;20055;-75
2021/11/25 07:40:13;;;;;;;36.40;32.28;;;1.40;99.90;;;;;;5022471;28;20414;-76
2021/11/25 07:42:39;;;;;;;37.58;33.45;;;1.60;99.90;;;;;;5032956;28;20101;-76
2021/11/25 07:45:05;;;;;;;44.50;36.15;;;1.80;99.90;;;;;;5014231;28;20118;-73
2021/11/25 07:47:34;;;;;;;38.72;34.38;;;1.90;99.90;;;;;;5028322;28;20399;-75
2021/11/25 07:50:12;;;;;;;36.10;32.25;;;1.80;99.90;;;;;;5034141;28;20020;-75
2021/11/25 07:52:37;;;;;;;37.00;32.95;;;1.70;99.90;;;;;;5033102;28;20025;-75
2021/11/25 07:55:05;;;;;;;35.22;31.52;;;1.50;99.90;;;;;;5005976;28;20121;-76
2021/11/25 07:57:30;;;;;;;36.15;32.22;;;1.50;99.90;;;;;;4998983;28;20080;-75
2021/11/25 07:59:56;;;;;;;38.88;34.65;;;1.60;99.90;;;;;;5006863;28;20030;-76
2021/11/25 08:02:22;;;;;;;37.78;33.67;;;1.60;99.90;;;;;;4996556;28;20033;-76
2021/11/25 08:04:49;;;;;;;42.08;35.25;;;1.50;99.90;;;;;;5022976;28;20017;-75
2021/11/25 08:07:15;;;;;;;39.35;34.38;;;1.50;99.90;;;;;;5033749;28;20067;-76
2021/11/25 08:09:40;;;;;;;37.38;33.33;;;1.50;99.90;;;;;;5033659;28;20105;-74
2021/11/25 08:12:07;;;;;;;38.30;33.10;;;1.50;99.90;;;;;;5015803;28;20120;-75
2021/11/25 08:14:32;;;;;;;38.30;33.63;;;1.40;99.90;;;;;;5024077;28;20436;-73
2021/11/25 08:16:59;;;;;;;36.80;32.67;;;1.50;99.90;;;;;;5013795;28;20148;-75
2021/11/25 08:19:25;;;;;;;37.63;32.85;;;1.60;99.90;;;;;;5022571;28;20056;-75
2021/11/25 08:21:51;;;;;;;37.55;33.38;;;1.50;99.90;;;;;;5016690;28;20453;-76
2021/11/25 08:24:17;;;;;;;40.05;35.55;;;1.50;99.90;;;;;;5033955;28;20152;-76
2021/11/25 08:26:42;;;;;;;39.13;34.88;;;1.60;99.90;;;;;;5033473;28;20025;-76
2021/11/25 08:29:08;;;;;;;38.38;34.08;;;1.80;99.90;;;;;;5015434;28;20112;-76
2021/11/25 08:31:33;;;;;;;39.00;34.75;;;1.90;99.90;;;;;;5033203;28;20032;-76
2021/11/25 08:33:59;;;;;;;38.20;34.05;;;1.90;99.90;;;;;;5024900;28;20380;-76
2021/11/25 08:36:25;;;;;;;38.53;34.28;;;2.00;99.90;;;;;;5013267;28;20127;-76
2021/11/25 08:38:50;;;;;;;42.50;36.08;;;2.00;99.90;;;;;;5013456;28;20105;-76
2021/11/25 08:41:16;;;;;;;40.78;35.22;;;1.80;99.90;;;;;;4995804;28;20121;-75
2021/11/25 08:43:41;;;;;;;37.97;33.78;;;1.60;99.90;;;;;;4995589;28;20029;-76
2021/11/25 08:46:07;;;;;;;36.78;32.33;;;1.60;99.90;;;;;;4995532;28;20080;-76
2021/11/25 08:48:33;;;;;;;42.58;34.08;;;1.70;99.90;;;;;;5017663;28;20399;-75
2021/11/25 08:50:59;;;;;;;38.75;33.55;;;1.70;99.90;;;;;;5028977;28;20022;-75
2021/11/25 08:53:26;;;;;;;41.25;36.63;;;1.60;99.90;;;;;;5032960;28;20067;-75
2021/11/25 08:55:52;;;;;;;41.30;35.28;;;1.50;99.90;;;;;;5032810;28;20021;-76
2021/11/25 08:58:17;;;;;;;41.33;34.53;;;1.40;99.90;;;;;;5033052;28;20121;-75
2021/11/25 09:00:43;;;;;;;41.38;33.65;;;1.40;99.90;;;;;;5032559;28;20392;-75
2021/11/25 09:03:08;;;;;;;41.83;35.40;;;1.40;99.90;;;;;;5032514;28;20029;-75
2021/11/25 09:05:34;;;;;;;40.55;34.63;;;1.60;99.90;;;;;;5032387;28;20040;-76
2021/11/25 09:08:00;;;;;;;41.10;35.97;;;1.70;99.90;;;;;;5032468;28;20101;-76
2021/11/25 09:10:27;;;;;;;40.92;35.92;;;1.80;99.90;;;;;;5032513;28;20022;-76
2021/11/25 09:12:52;;;;;;;42.88;37.08;;;1.90;99.90;;;;;;5032571;28;20022;-75
2021/11/25 09:15:18;;;;;;;45.47;39.63;;;1.90;99.90;;;;;;5032346;28;20411;-75
2021/11/25 09:17:44;;;;;;;43.83;37.00;;;2.00;99.90;;;;;;5014711;28;20052;-76
2021/11/25 09:20:10;;;;;;;44.75;37.78;;;2.10;99.90;;;;;;5001396;28;20026;-75
2021/11/25 09:22:38;;;;;;;39.50;34.30;;;2.00;99.90;;;;;;5024131;28;20436;-75
2021/11/25 09:25:04;;;;;;;37.25;31.98;;;2.00;99.90;;;;;;5009769;28;20025;-75
2021/11/25 09:27:30;;;;;;;38.75;33.00;;;1.70;99.90;;;;;;5032163;28;20034;-76
2021/11/25 09:29:55;;;;;;;43.28;35.88;;;1.70;99.90;;;;;;5014414;28;20389;-75
2021/11/25 09:32:21;;;;;;;43.05;37.10;;;1.70;99.90;;;;;;5014166;28;20504;-76
2021/11/25 09:34:46;;;;;;;71.20;52.38;;;1.80;99.90;;;;;;5031963;28;20510;-76
2021/11/25 09:37:12;;;;;;;94.95;65.15;;;1.90;99.90;;;;;;5014569;28;20042;-76
2021/11/25 09:39:37;;;;;;;53.42;43.45;;;1.90;99.90;;;;;;5014386;28;20080;-76
2021/11/25 09:42:03;;;;;;;44.67;37.28;;;1.90;99.90;;;;;;5032069;28;20103;-76
2021/11/25 09:44:29;;;;;;;54.78;40.72;;;1.80;99.90;;;;;;5014275;28;20056;-76
2021/11/25 09:46:57;;;;;;;55.83;42.17;;;1.90;99.90;;;;;;5014277;28;20030;-75
2021/11/25 09:49:25;;;;;;;65.22;47.72;;;1.90;99.90;;;;;;5031790;28;20041;-75
2021/11/25 09:51:52;;;;;;;148.85;93.35;;;2.00;99.90;;;;;;5021894;28;20121;-75
2021/11/25 09:54:17;;;;;;;371.58;234.50;;;1.80;99.90;;;;;;5012136;28;20105;-75
2021/11/25 09:56:43;;;;;;;114.25;77.30;;;1.80;99.90;;;;;;5012089;28;20097;-75
2021/11/25 09:59:09;;;;;;;53.47;41.80;;;1.90;99.90;;;;;;5009252;28;20044;-73
2021/11/25 10:01:35;;;;;;;49.10;40.70;;;1.90;99.90;;;;;;5022171;28;20030;-76
2021/11/25 10:04:01;;;;;;;52.65;41.35;;;1.90;99.90;;;;;;5000606;28;20029;-75
2021/11/25 10:06:32;;;;;;;47.92;37.47;;;1.90;99.90;;;;;;5031786;28;20495;-76
2021/11/25 10:08:57;;;;;;;44.95;36.38;;;1.90;99.90;;;;;;5014046;28;20033;-75
2021/11/25 10:11:29;;;;;;;43.40;35.78;;;2.00;99.90;;;;;;5031644;28;20036;-75
2021/11/25 10:14:03;;;;;;;45.10;35.13;;;2.10;99.90;;;;;;5031848;28;20040;-76
2021/11/25 10:16:32;;;;;;;46.55;35.50;;;2.10;99.90;;;;;;5013884;28;20029;-75
2021/11/25 10:19:16;;;;;;;41.88;34.25;;;2.10;99.90;;;;;;5012032;28;20080;-76
2021/11/25 10:21:52;;;;;;;45.35;35.75;;;2.20;99.90;;;;;;4994238;28;20057;-76
2021/11/25 10:24:37;;;;;;;44.03;35.40;;;2.20;99.90;;;;;;5011924;28;20391;-75
2021/11/25 10:27:19;;;;;;;42.90;35.70;;;2.10;99.90;;;;;;4994291;28;20084;-76
2021/11/25 10:30:07;;;;;;;45.13;35.92;;;1.90;99.90;;;;;;4994248;28;20033;-75
2021/11/25 10:32:33;;;;;;;47.35;37.50;;;1.90;99.90;;;;;;5010627;28;20097;-76
2021/11/25 10:35:24;;;;;;;43.85;34.63;;;2.00;99.90;;;;;;5016877;28;20132;-75
2021/11/25 10:38:20;;;;;;;42.70;35.30;;;2.10;99.90;;;;;;5031511;28;20083;-75
2021/11/25 10:40:44;;;;;;;47.63;38.80;;;2.20;99.90;;;;;;5031305;28;20040;-75
2021/11/25 10:43:25;;;;;;;88.72;60.50;;;2.20;99.90;;;;;;5009912;28;20033;-76
2021/11/25 10:45:53;;;;;;;99.53;67.28;;;2.20;99.90;;;;;;4997734;28;20022;-75
2021/11/25 10:48:29;;;;;;;111.70;76.10;;;2.30;99.90;;;;;;4998200;28;20033;-76
2021/11/25 10:50:55;;;;;;;;;;;2.30;99.90;;;;;;5019003;28;20021;-76
2021/11/25 10:53:20;;;;;;;87.53;60.73;;;2.30;99.90;;;;;;5015354;28;19976;-75
2021/11/25 10:55:46;;;;;;;44.45;35.88;;;2.20;99.90;;;;;;4997611;28;20022;-76
2021/11/25 10:58:12;;;;;;;48.67;37.22;;;2.00;99.90;;;;;;5015296;28;20511;-76
2021/11/25 11:00:39;;;;;;;44.42;35.85;;;1.90;99.90;;;;;;5015260;28;20022;-76
2021/11/25 11:03:07;;;;;;;45.30;35.90;;;1.90;99.90;;;;;;5015204;28;20084;-76
2021/11/25 11:05:49;;;;;;;45.55;36.15;;;1.90;99.90;;;;;;5015023;28;20373;-76
2021/11/25 11:08:16;;;;;;;45.85;37.53;;;2.00;99.90;;;;;;4997311;28;20080;-75
2021/11/25 11:10:53;;;;;;;44.33;36.22;;;1.90;99.90;;;;;;5014991;28;20034;-75
2021/11/25 11:16:09;;;;;;;48.30;36.95;;;2.00;99.90;;;;;;5019767;28;20053;-76
2021/11/25 11:18:53;;;;;;;46.35;37.30;;;2.00;99.90;;;;;;5034865;28;20025;-76
2021/11/25 11:21:42;;;;;;;46.85;37.20;;;1.90;99.90;;;;;;5034637;28;20105;-75
2021/11/25 11:24:15;;;;;;;46.97;35.67;;;1.90;99.90;;;;;;5034463;28;20064;-75
2021/11/25 11:26:49;;;;;;;45.30;35.38;;;2.00;99.90;;;;;;5030148;28;20503;-75
2021/11/25 11:29:19;;;;;;;46.30;36.03;;;2.00;99.90;;;;;;5015606;28;20113;-75
2021/11/25 11:31:46;;;;;;;46.75;37.35;;;1.80;99.90;;;;;;5014711;28;20400;-76
2021/11/25 11:34:13;;;;;;;47.13;37.40;;;1.90;99.90;;;;;;5025887;28;20025;-76
2021/11/25 11:36:42;;;;;;;47.00;38.35;;;2.10;99.90;;;;;;5029221;28;20484;-75
2021/11/25 11:39:09;;;;;;;45.70;36.50;;;2.10;99.90;;;;;;5008628;28;20471;-75
2021/11/25 11:41:36;;;;;;;56.70;42.67;;;2.10;99.90;;;;;;5029083;28;20104;-75
2021/11/25 11:44:03;;;;;;;65.32;45.22;;;2.10;99.90;;;;;;5026168;28;20436;-75
2021/11/25 11:46:31;;;;;;;61.40;46.00;;;2.10;99.90;;;;;;5020598;28;20095;-76
2021/11/25 11:48:59;;;;;;;68.68;48.63;;;2.00;99.90;;;;;;5021932;28;20480;-76
2021/11/25 11:51:24;;;;;;;45.75;36.55;;;2.00;99.90;;;;;;5020363;28;20029;-75
2021/11/25 11:53:51;;;;;;;47.08;36.55;;;2.00;99.90;;;;;;5033535;28;20032;-76
2021/11/25 11:56:18;;;;;;;47.40;37.53;;;2.00;99.90;;;;;;5040253;28;20013;-75
2021/11/25 11:58:55;;;;;;;47.22;36.60;;;2.00;99.90;;;;;;5052290;28;20029;-75
2021/11/25 12:01:28;;;;;;;47.75;37.05;;;1.80;99.90;;;;;;5017057;28;20048;-75
2021/11/25 12:03:55;;;;;;;44.75;36.78;;;1.90;99.90;;;;;;5021916;28;20099;-76
2021/11/25 12:06:37;;;;;;;48.40;37.70;;;2.00;99.90;;;;;;5032997;28;20021;-75
2021/11/25 12:09:10;;;;;;;44.70;35.85;;;2.00;99.90;;;;;;5041309;28;20020;-75
2021/11/25 12:11:47;;;;;;;48.80;37.13;;;2.00;99.90;;;;;;5030640;28;20463;-75
2021/11/25 12:14:24;;;;;;;44.30;35.63;;;2.00;99.90;;;;;;5030152;28;20410;-75
2021/11/25 12:16:58;;;;;;;45.42;33.83;;;2.00;99.90;;;;;;5019693;28;20487;-75
2021/11/25 12:19:28;;;;;;;44.40;33.80;;;2.00;99.90;;;;;;5013778;28;20034;-76
2021/11/25 12:21:59;;;;;;;50.13;38.08;;;2.10;99.90;;;;;;5029680;28;20507;-75
2021/11/25 12:24:31;;;;;;;48.60;35.92;;;2.20;99.90;;;;;;5020607;28;20045;-75
2021/11/25 12:27:23;;;;;;;50.67;37.83;;;2.20;99.90;;;;;;5015560;28;20026;-76
2021/11/25 12:29:53;;;;;;;48.58;35.78;;;2.10;99.90;;;;;;5013405;28;20566;-75
2021/11/25 12:32:37;;;;;;;46.70;35.22;;;2.00;99.90;;;;;;5011007;28;20017;-75
2021/11/25 12:35:11;;;;;;;50.85;35.83;;;2.10;99.90;;;;;;5025765;28;20025;-75
2021/11/25 12:37:46;;;;;;;45.38;34.17;;;1.90;99.90;;;;;;5004321;28;20023;-75
2021/11/25 12:40:17;;;;;;;44.40;32.53;;;1.80;99.90;;;;;;5021486;28;20024;-75
2021/11/25 12:42:45;;;;;;;43.65;31.20;;;1.90;99.90;;;;;;5020262;28;20080;-77
2021/11/25 12:45:48;;;;;;;44.67;32.55;;;1.90;99.90;;;;;;5003705;28;20026;-76